Time;durP1;ratioP1;P1;durP2;ratioP2;P2;SDS_P1;SDS_P2;PMS_P1;PMS_P2;Temp;Humidity;BMP_temperature;BMP_pressure;BME280_temperature;BME280_humidity;BME280_pressure;Samples;Min_cycle;Max_cycle;Signal;HPM_P1;HPM_P2
2022/11/15 00:01:16;;;;;;;15.07;12.95;;;3.70;99.90;;;;;;5043883;28;20263;-73
2022/11/15 00:03:42;;;;;;;14.77;12.60;;;3.60;99.90;;;;;;5028610;28;20495;-73
2022/11/15 00:06:08;;;;;;;13.63;11.45;;;3.60;99.90;;;;;;5041202;28;20259;-74
2022/11/15 00:08:34;;;;;;;13.18;11.80;;;3.60;99.90;;;;;;5041329;28;20602;-74
2022/11/15 00:11:02;;;;;;;14.73;11.90;;;3.60;99.90;;;;;;5045384;28;20180;-73
2022/11/15 00:13:28;;;;;;;15.80;12.70;;;3.60;99.90;;;;;;5036845;28;20674;-74
2022/11/15 00:15:58;;;;;;;14.30;12.52;;;3.60;99.90;;;;;;5042736;28;20176;-74
2022/11/15 00:18:23;;;;;;;16.17;12.95;;;3.50;99.90;;;;;;5042422;28;20554;-75
2022/11/15 00:20:49;;;;;;;16.13;13.40;;;3.50;99.90;;;;;;5036265;28;20181;-74
2022/11/15 00:23:14;;;;;;;15.48;12.35;;;3.50;99.90;;;;;;5033995;28;20192;-73
2022/11/15 00:25:40;;;;;;;13.57;12.18;;;3.40;99.90;;;;;;5044232;28;20181;-74
2022/11/15 00:28:06;;;;;;;13.35;11.95;;;3.40;99.90;;;;;;5044492;28;20200;-74
2022/11/15 00:30:32;;;;;;;14.63;12.55;;;3.40;99.90;;;;;;5045637;28;20226;-74
2022/11/15 00:33:02;;;;;;;15.55;12.40;;;3.50;99.90;;;;;;5043084;28;20168;-73
2022/11/15 00:35:28;;;;;;;16.02;13.18;;;3.50;99.90;;;;;;5039537;28;20176;-73
2022/11/15 00:37:53;;;;;;;13.60;10.95;;;3.40;99.90;;;;;;5017112;28;20213;-73
2022/11/15 00:40:19;;;;;;;14.77;11.75;;;3.40;99.90;;;;;;5023231;28;20656;-74
2022/11/15 00:42:45;;;;;;;16.05;11.60;;;3.50;99.90;;;;;;5033982;28;20180;-73
2022/11/15 00:45:11;;;;;;;16.00;12.65;;;3.50;99.90;;;;;;5045705;28;20564;-74
2022/11/15 00:47:36;;;;;;;15.95;12.68;;;3.40;99.90;;;;;;5032001;28;20288;-74
2022/11/15 00:50:02;;;;;;;15.95;12.40;;;3.40;99.90;;;;;;5029385;28;20596;-72
2022/11/15 00:52:28;;;;;;;13.48;12.07;;;3.30;99.90;;;;;;5025436;28;20202;-72
2022/11/15 00:54:54;;;;;;;13.95;11.50;;;3.30;99.90;;;;;;5026825;28;20185;-71
2022/11/15 00:57:19;;;;;;;13.10;11.55;;;3.30;99.90;;;;;;5030672;28;20213;-72
2022/11/15 00:59:45;;;;;;;14.38;12.20;;;3.30;99.90;;;;;;5020751;28;20201;-72
2022/11/15 01:02:10;;;;;;;14.82;12.80;;;3.30;99.90;;;;;;5015020;28;20539;-71
2022/11/15 01:04:36;;;;;;;13.45;11.70;;;3.20;99.90;;;;;;5020737;28;20176;-73
2022/11/15 01:07:02;;;;;;;13.90;11.57;;;3.20;99.90;;;;;;5019743;28;20555;-72
2022/11/15 01:09:28;;;;;;;15.32;11.80;;;3.20;99.90;;;;;;5016485;28;20204;-70
2022/11/15 01:11:53;;;;;;;15.98;12.82;;;3.30;99.90;;;;;;5015095;28;20230;-70
2022/11/15 01:14:19;;;;;;;14.57;11.38;;;3.30;99.90;;;;;;5021476;28;20255;-71
2022/11/15 01:16:44;;;;;;;14.82;12.10;;;3.40;99.90;;;;;;5017949;28;20219;-73
2022/11/15 01:19:10;;;;;;;15.68;12.07;;;3.30;99.90;;;;;;5017674;28;20506;-73
2022/11/15 01:21:35;;;;;;;14.63;11.80;;;3.30;99.90;;;;;;5015751;28;20178;-73
2022/11/15 01:24:01;;;;;;;12.88;11.43;;;3.30;99.90;;;;;;5015951;28;20645;-73
2022/11/15 01:26:27;;;;;;;15.85;11.63;;;3.30;99.90;;;;;;5015891;28;20184;-73
2022/11/15 01:28:52;;;;;;;12.65;11.32;;;3.20;99.90;;;;;;5013980;28;20220;-73
2022/11/15 01:31:20;;;;;;;11.75;10.52;;;3.20;99.90;;;;;;5017808;28;20230;-73
2022/11/15 01:33:47;;;;;;;14.52;11.60;;;3.20;99.90;;;;;;5018955;28;20180;-73
2022/11/15 01:36:23;;;;;;;13.70;11.57;;;3.20;99.90;;;;;;5021713;28;20261;-73
2022/11/15 01:38:59;;;;;;;17.30;13.15;;;3.10;99.90;;;;;;5021899;28;20197;-73
2022/11/15 01:41:30;;;;;;;16.38;13.02;;;3.10;99.90;;;;;;5022086;28;20262;-72
2022/11/15 01:44:18;;;;;;;14.90;12.43;;;3.00;99.90;;;;;;5016434;28;20181;-73
2022/11/15 01:46:47;;;;;;;16.23;11.73;;;3.00;99.90;;;;;;5019252;28;20207;-72
2022/11/15 01:49:20;;;;;;;16.45;12.02;;;3.00;99.90;;;;;;5034627;28;20213;-73
2022/11/15 01:51:46;;;;;;;15.70;12.63;;;3.00;99.90;;;;;;5044354;28;20760;-72
2022/11/15 01:54:16;;;;;;;14.63;12.43;;;3.00;99.90;;;;;;5029583;28;20205;-72
2022/11/15 01:56:55;;;;;;;18.23;13.30;;;3.00;99.90;;;;;;5035283;28;20534;-72
2022/11/15 01:59:22;;;;;;;16.52;12.85;;;2.90;99.90;;;;;;5036244;28;20230;-73
2022/11/15 02:01:48;;;;;;;17.95;13.85;;;2.90;99.90;;;;;;5030786;28;20200;-71
2022/11/15 02:04:18;;;;;;;15.32;13.20;;;2.80;99.90;;;;;;5032376;28;20576;-72
2022/11/15 02:06:46;;;;;;;17.55;13.38;;;2.80;99.90;;;;;;5038807;28;20524;-70
2022/11/15 02:09:12;;;;;;;16.83;12.32;;;2.80;99.90;;;;;;5039820;28;20208;-70
2022/11/15 02:11:38;;;;;;;16.10;12.48;;;2.80;99.90;;;;;;5036439;28;20709;-71
2022/11/15 02:14:05;;;;;;;18.95;13.77;;;2.80;99.90;;;;;;5044446;28;20255;-71
2022/11/15 02:17:01;;;;;;;15.77;12.80;;;2.80;99.90;;;;;;5037643;28;20262;-71
2022/11/15 02:19:32;;;;;;;13.75;11.38;;;2.80;99.90;;;;;;5032645;28;20254;-71
2022/11/15 02:22:26;;;;;;;18.17;11.68;;;2.80;99.90;;;;;;5045603;28;20180;-70
2022/11/15 02:25:02;;;;;;;16.50;12.13;;;2.90;99.90;;;;;;5040395;28;20201;-70
2022/11/15 02:27:31;;;;;;;12.85;10.98;;;2.80;99.90;;;;;;5027539;28;20178;-70
2022/11/15 02:30:23;;;;;;;12.45;10.55;;;2.80;99.90;;;;;;5040504;28;20218;-71
2022/11/15 02:32:57;;;;;;;15.10;11.60;;;2.80;99.90;;;;;;5020977;28;20262;-70
2022/11/15 02:35:52;;;;;;;15.55;11.80;;;2.80;99.90;;;;;;5040342;28;20669;-72
2022/11/15 02:38:52;;;;;;;14.15;11.10;;;2.80;99.90;;;;;;5035339;28;20240;-72
2022/11/15 02:41:44;;;;;;;14.27;10.95;;;2.80;99.90;;;;;;5040160;28;20304;-72
2022/11/15 02:44:21;;;;;;;14.95;11.10;;;2.80;99.90;;;;;;5042670;28;20667;-72
2022/11/15 02:47:14;;;;;;;14.82;11.30;;;2.80;99.90;;;;;;5036476;28;20205;-72
2022/11/15 02:49:58;;;;;;;13.00;10.98;;;2.80;99.90;;;;;;5034696;28;20205;-71
2022/11/15 02:52:27;;;;;;;14.07;11.27;;;2.70;99.90;;;;;;5029235;28;20178;-73
2022/11/15 02:54:55;;;;;;;13.20;11.48;;;2.70;99.90;;;;;;5036326;28;20203;-73
2022/11/15 02:57:51;;;;;;;11.73;10.13;;;2.70;99.90;;;;;;5038652;28;20192;-73
2022/11/15 03:00:21;;;;;;;11.63;10.40;;;2.60;99.90;;;;;;5040958;28;20632;-73
2022/11/15 03:03:19;;;;;;;11.70;10.13;;;2.70;99.90;;;;;;5039849;28;20184;-73
2022/11/15 03:05:51;;;;;;;12.85;10.57;;;2.60;99.90;;;;;;5030576;28;20209;-70
2022/11/15 03:08:20;;;;;;;11.68;9.70;;;2.60;99.90;;;;;;5028843;28;20211;-70
2022/11/15 03:10:52;;;;;;;11.27;10.07;;;2.50;99.90;;;;;;5036121;28;20227;-72
2022/11/15 03:13:35;;;;;;;10.00;9.00;;;2.50;99.90;;;;;;5032456;28;20177;-70
2022/11/15 03:16:20;;;;;;;12.67;9.73;;;2.50;99.90;;;;;;5015676;28;20276;-70
2022/11/15 03:18:53;;;;;;;11.50;10.30;;;2.50;99.90;;;;;;5034705;28;20850;-71
2022/11/15 03:21:21;;;;;;;11.48;10.27;;;2.50;99.90;;;;;;5034333;28;20157;-71
2022/11/15 03:23:48;;;;;;;13.73;10.80;;;2.40;99.90;;;;;;5033597;28;20181;-71
2022/11/15 03:26:17;;;;;;;11.17;9.97;;;2.40;99.90;;;;;;5033481;28;20774;-72
2022/11/15 03:28:46;;;;;;;10.43;9.33;;;2.40;99.90;;;;;;5041788;28;20217;-72
2022/11/15 03:34:03;;;;;;;11.75;10.20;;;2.30;99.90;;;;;;5035566;28;20717;-72
2022/11/15 03:36:32;;;;;;;12.13;10.57;;;2.30;99.90;;;;;;5030593;28;20172;-72
2022/11/15 03:39:01;;;;;;;12.10;9.65;;;2.30;99.90;;;;;;5036352;28;20293;-72
2022/11/15 03:41:43;;;;;;;10.87;9.77;;;2.30;99.90;;;;;;5023078;28;20180;-72
2022/11/15 03:44:12;;;;;;;11.33;9.87;;;2.30;99.90;;;;;;5038525;28;20207;-72
2022/11/15 03:46:56;;;;;;;12.20;10.18;;;2.20;99.90;;;;;;5035627;28;20671;-71
2022/11/15 03:49:30;;;;;;;12.53;10.00;;;2.20;99.90;;;;;;5041601;28;20219;-72
2022/11/15 03:51:58;;;;;;;11.67;9.67;;;2.20;99.90;;;;;;5031469;28;20237;-72
2022/11/15 03:54:24;;;;;;;10.80;9.70;;;2.20;99.90;;;;;;5042257;28;20673;-71
2022/11/15 03:56:49;;;;;;;11.35;10.07;;;2.10;99.90;;;;;;5042572;28;20216;-71
2022/11/15 03:59:15;;;;;;;12.27;10.75;;;2.20;99.90;;;;;;5032818;28;20253;-72
2022/11/15 04:01:40;;;;;;;15.38;10.02;;;2.10;99.90;;;;;;5041461;28;20268;-72
2022/11/15 04:04:06;;;;;;;11.73;10.57;;;2.10;99.90;;;;;;5039641;28;20180;-72
2022/11/15 04:06:32;;;;;;;10.93;9.75;;;2.10;99.90;;;;;;5039946;28;20193;-72
2022/11/15 04:08:57;;;;;;;11.80;10.63;;;2.00;99.90;;;;;;5022759;28;20212;-71
2022/11/15 04:11:23;;;;;;;11.43;10.20;;;2.00;99.90;;;;;;5038227;28;20176;-71
2022/11/15 04:13:48;;;;;;;10.97;9.87;;;2.00;99.90;;;;;;5043684;28;20208;-71
2022/11/15 04:16:14;;;;;;;11.33;10.00;;;2.10;99.90;;;;;;5031733;28;20193;-71
2022/11/15 04:18:39;;;;;;;11.27;10.07;;;2.10;99.90;;;;;;5041113;28;20565;-71
2022/11/15 04:26:30;;;;;;;11.57;10.17;;;2.10;99.90;;;;;;5040780;28;20187;-71
2022/11/15 04:31:39;;;;;;;11.40;9.80;;;2.00;99.90;;;;;;5028577;28;20191;-71
2022/11/15 04:34:05;;;;;;;14.17;10.27;;;1.90;99.90;;;;;;5040605;28;20614;-71
2022/11/15 04:39:28;;;;;;;12.87;10.27;;;1.90;99.90;;;;;;5037874;28;20246;-71
2022/11/15 04:41:54;;;;;;;11.50;10.13;;;1.90;99.90;;;;;;5041396;28;20208;-71
2022/11/15 04:44:19;;;;;;;11.23;10.03;;;1.90;99.90;;;;;;5038908;28;20180;-72
2022/11/15 04:46:45;;;;;;;11.37;10.17;;;2.00;99.90;;;;;;5031170;28;20196;-72
2022/11/15 04:49:10;;;;;;;10.97;9.30;;;2.00;99.90;;;;;;5037221;28;20227;-71
2022/11/15 04:51:36;;;;;;;14.00;11.20;;;2.00;99.90;;;;;;5027578;28;20184;-73
2022/11/15 04:54:02;;;;;;;13.97;12.40;;;2.00;99.90;;;;;;5040741;28;20559;-70
2022/11/15 04:56:27;;;;;;;12.37;10.60;;;2.00;99.90;;;;;;5034367;28;20222;-71
2022/11/15 04:58:53;;;;;;;13.57;11.53;;;2.00;99.90;;;;;;5029747;28;20216;-70
2022/11/15 05:01:18;;;;;;;13.30;11.20;;;2.10;99.90;;;;;;5031829;28;20364;-70
2022/11/15 05:06:29;;;;;;;15.50;11.97;;;2.10;99.90;;;;;;5029010;28;20199;-73
2022/11/15 05:08:56;;;;;;;17.67;12.00;;;2.20;99.90;;;;;;5032029;28;20686;-71
2022/11/15 05:11:22;;;;;;;11.80;10.63;;;2.10;99.90;;;;;;5039832;28;20205;-70
2022/11/15 05:13:47;;;;;;;14.10;11.77;;;2.10;99.90;;;;;;5042793;28;20175;-71
2022/11/15 05:16:13;;;;;;;16.77;12.67;;;2.10;99.90;;;;;;5039654;28;20261;-72
2022/11/15 05:18:42;;;;;;;14.00;11.70;;;2.10;99.90;;;;;;5037426;28;20251;-70
2022/11/15 05:21:10;;;;;;;16.90;12.63;;;2.00;99.90;;;;;;5036279;28;20192;-72
2022/11/15 05:23:36;;;;;;;14.40;12.13;;;2.00;99.90;;;;;;5038779;28;20175;-70
2022/11/15 05:26:04;;;;;;;15.98;12.25;;;2.00;99.90;;;;;;5033608;28;20183;-71
2022/11/15 05:28:30;;;;;;;13.23;11.80;;;1.90;99.90;;;;;;5047187;28;20200;-70
2022/11/15 05:31:10;;;;;;;14.63;10.83;;;1.90;99.90;;;;;;5044568;28;20686;-72
2022/11/15 05:33:37;;;;;;;13.83;10.90;;;2.00;99.90;;;;;;5037850;28;20278;-70
2022/11/15 05:36:09;;;;;;;12.00;10.77;;;2.00;99.90;;;;;;5043439;28;20168;-72
2022/11/15 05:38:35;;;;;;;13.80;10.80;;;2.00;99.90;;;;;;5029311;28;20200;-72
2022/11/15 05:41:02;;;;;;;12.67;10.83;;;2.00;99.90;;;;;;5044124;28;20176;-70
2022/11/15 05:43:31;;;;;;;12.60;11.25;;;2.00;99.90;;;;;;5035921;28;20191;-70
2022/11/15 05:45:58;;;;;;;12.30;10.23;;;1.90;99.90;;;;;;5036302;28;20180;-71
2022/11/15 05:48:24;;;;;;;12.55;10.90;;;1.90;99.90;;;;;;5041314;28;20789;-70
2022/11/15 05:50:50;;;;;;;11.77;9.93;;;2.00;99.90;;;;;;5033920;28;20230;-71
2022/11/15 05:53:19;;;;;;;11.13;9.77;;;2.10;99.90;;;;;;5031176;28;20180;-72
2022/11/15 05:55:45;;;;;;;11.18;8.93;;;2.20;99.90;;;;;;5032666;28;20173;-72
2022/11/15 05:58:11;;;;;;;10.93;9.33;;;2.40;99.90;;;;;;5042388;28;20250;-72
2022/11/15 06:00:37;;;;;;;13.03;10.20;;;2.50;99.90;;;;;;5043193;28;20180;-70
2022/11/15 06:03:02;;;;;;;11.80;9.63;;;2.40;99.90;;;;;;5031694;28;20730;-72
2022/11/15 06:05:28;;;;;;;13.30;9.63;;;2.40;99.90;;;;;;5043982;28;20184;-72
2022/11/15 06:07:57;;;;;;;12.27;10.07;;;2.30;99.90;;;;;;5026113;28;20211;-72
2022/11/15 06:10:23;;;;;;;11.55;9.57;;;2.30;99.90;;;;;;5042013;28;20176;-70
2022/11/15 06:12:56;;;;;;;13.30;9.70;;;2.20;99.90;;;;;;5042455;28;20195;-69
2022/11/15 06:15:22;;;;;;;11.27;9.53;;;2.10;99.90;;;;;;5043433;28;20229;-70
2022/11/15 06:17:48;;;;;;;13.43;10.40;;;2.10;99.90;;;;;;5041797;28;20227;-71
2022/11/15 06:20:14;;;;;;;12.30;9.67;;;2.10;99.90;;;;;;5033463;28;20176;-71
2022/11/15 06:22:39;;;;;;;11.77;9.90;;;2.10;99.90;;;;;;5024553;28;20696;-73
2022/11/15 06:25:05;;;;;;;11.73;10.07;;;2.10;99.90;;;;;;5027791;28;20177;-72
2022/11/15 06:27:31;;;;;;;11.07;9.90;;;2.10;99.90;;;;;;5039771;28;20222;-72
2022/11/15 06:29:56;;;;;;;11.23;9.63;;;2.10;99.90;;;;;;5034936;28;20284;-71
2022/11/15 06:32:22;;;;;;;13.83;9.97;;;2.10;99.90;;;;;;5045134;28;20558;-71
2022/11/15 06:34:47;;;;;;;14.23;10.25;;;2.20;99.90;;;;;;5032887;28;20242;-73
2022/11/15 06:37:13;;;;;;;13.90;10.90;;;2.10;99.90;;;;;;5020759;28;20193;-72
2022/11/15 06:39:38;;;;;;;15.10;11.70;;;2.10;99.90;;;;;;5026141;28;20748;-70
2022/11/15 06:42:04;;;;;;;16.50;11.53;;;2.10;99.90;;;;;;5033817;28;20211;-70
2022/11/15 06:44:30;;;;;;;17.60;10.87;;;2.10;99.90;;;;;;5042200;28;20218;-74
2022/11/15 06:46:55;;;;;;;15.95;12.30;;;2.20;99.90;;;;;;5030938;28;20235;-75
2022/11/15 06:49:21;;;;;;;20.88;12.48;;;2.20;99.90;;;;;;5031679;28;20224;-73
2022/11/15 06:51:46;;;;;;;18.00;12.67;;;2.30;99.90;;;;;;5036963;28;20191;-75
2022/11/15 06:54:12;;;;;;;16.83;12.15;;;2.40;99.90;;;;;;5038126;28;20546;-74
2022/11/15 06:56:37;;;;;;;14.90;11.80;;;2.50;99.90;;;;;;5021078;28;20187;-76
2022/11/15 06:59:03;;;;;;;22.85;14.50;;;2.50;99.90;;;;;;5037118;28;20211;-77
2022/11/15 07:01:28;;;;;;;27.10;14.85;;;2.50;99.90;;;;;;5036903;28;20636;-77
2022/11/15 07:03:54;;;;;;;23.83;14.07;;;2.50;99.90;;;;;;5040376;28;20191;-77
2022/11/15 07:06:20;;;;;;;19.88;14.00;;;2.60;99.90;;;;;;5032490;28;20568;-77
2022/11/15 07:08:45;;;;;;;26.42;15.18;;;2.70;99.90;;;;;;5032356;28;20208;-78
2022/11/15 07:11:11;;;;;;;23.05;13.75;;;2.80;99.90;;;;;;5038734;28;20181;-74
2022/11/15 07:13:37;;;;;;;23.65;14.75;;;2.80;99.90;;;;;;5046612;28;20188;-75
2022/11/15 07:16:05;;;;;;;19.48;13.60;;;2.80;99.90;;;;;;5039959;28;20669;-74
2022/11/15 07:18:31;;;;;;;17.85;13.65;;;2.90;99.90;;;;;;5040431;28;20475;-74
2022/11/15 07:21:00;;;;;;;21.08;13.95;;;2.90;99.90;;;;;;5031242;28;20184;-74
2022/11/15 07:23:26;;;;;;;14.63;12.48;;;2.90;99.90;;;;;;5017593;28;20202;-74
2022/11/15 07:25:51;;;;;;;16.17;11.85;;;3.00;99.90;;;;;;5036864;28;20187;-74
2022/11/15 07:28:17;;;;;;;13.45;11.45;;;3.00;99.90;;;;;;5045427;28;20234;-74
2022/11/15 07:30:43;;;;;;;15.98;11.60;;;3.20;99.90;;;;;;5035957;28;20551;-74
2022/11/15 07:33:08;;;;;;;16.30;12.10;;;3.20;99.90;;;;;;5033710;28;20401;-71
2022/11/15 07:35:34;;;;;;;13.02;11.60;;;3.30;99.90;;;;;;5028015;28;20267;-75
2022/11/15 07:38:01;;;;;;;13.30;11.90;;;3.30;99.90;;;;;;5032273;28;20655;-73
2022/11/15 07:40:29;;;;;;;13.60;11.48;;;3.40;99.90;;;;;;5028571;28;20184;-73
2022/11/15 07:43:02;;;;;;;14.45;12.13;;;3.50;99.90;;;;;;5024080;28;20185;-72
2022/11/15 07:45:28;;;;;;;14.10;12.20;;;3.50;99.90;;;;;;5024387;28;20732;-70
2022/11/15 07:47:55;;;;;;;13.18;11.85;;;3.60;99.90;;;;;;5017955;28;20203;-71
2022/11/15 07:50:23;;;;;;;13.98;12.30;;;3.60;99.90;;;;;;5033102;28;20563;-71
2022/11/15 07:52:56;;;;;;;17.88;12.13;;;3.70;99.90;;;;;;5042017;28;20225;-72
2022/11/15 07:55:23;;;;;;;13.63;12.02;;;3.70;99.90;;;;;;5037367;28;20215;-74
2022/11/15 07:57:49;;;;;;;13.80;10.60;;;3.80;99.90;;;;;;5036279;28;20196;-73
2022/11/15 08:00:15;;;;;;;15.50;12.27;;;3.90;99.90;;;;;;5026112;28;20189;-73
2022/11/15 08:02:41;;;;;;;12.25;10.68;;;4.00;99.90;;;;;;5035520;28;20527;-73
2022/11/15 08:05:07;;;;;;;11.77;10.57;;;4.10;99.90;;;;;;5028821;28;20260;-74
2022/11/15 08:07:33;;;;;;;10.25;9.15;;;4.20;99.90;;;;;;5037488;28;20230;-73
2022/11/15 08:10:00;;;;;;;11.98;10.73;;;4.30;99.90;;;;;;5029649;28;20212;-73
2022/11/15 08:12:29;;;;;;;11.73;10.52;;;4.30;99.90;;;;;;5031477;28;20180;-73
2022/11/15 08:14:56;;;;;;;15.75;11.35;;;4.40;99.90;;;;;;5016684;28;20181;-74
2022/11/15 08:17:23;;;;;;;12.95;10.18;;;4.50;99.90;;;;;;5023522;28;20855;-73
2022/11/15 08:19:48;;;;;;;12.07;10.77;;;4.60;99.90;;;;;;5037462;28;20206;-75
2022/11/15 08:22:14;;;;;;;12.20;10.88;;;4.70;99.90;;;;;;5034000;28;20275;-75
2022/11/15 08:24:39;;;;;;;14.27;10.57;;;4.70;99.90;;;;;;5035986;28;20198;-72
2022/11/15 08:27:14;;;;;;;12.50;10.85;;;4.80;99.90;;;;;;5036537;28;20204;-73
2022/11/15 08:29:43;;;;;;;11.82;10.57;;;4.80;99.90;;;;;;5027662;28;20578;-74
2022/11/15 08:32:10;;;;;;;13.15;10.57;;;4.80;99.90;;;;;;5014941;28;20181;-73
2022/11/15 08:34:37;;;;;;;13.68;10.75;;;4.90;99.90;;;;;;5019650;28;20333;-74
2022/11/15 08:37:02;;;;;;;12.35;10.00;;;4.90;99.90;;;;;;5031073;28;20169;-74
2022/11/15 08:39:28;;;;;;;11.82;9.82;;;5.10;99.90;;;;;;5033194;28;20702;-74
2022/11/15 08:41:53;;;;;;;11.90;10.10;;;5.20;99.90;;;;;;5019264;28;20208;-74
2022/11/15 08:44:19;;;;;;;11.27;10.13;;;5.30;99.90;;;;;;5046551;28;20184;-73
2022/11/15 08:46:47;;;;;;;10.38;9.38;;;5.40;99.90;;;;;;5036385;28;20612;-74
2022/11/15 08:49:13;;;;;;;10.80;9.70;;;5.50;99.90;;;;;;5031621;28;20209;-73
2022/11/15 08:51:39;;;;;;;13.85;10.68;;;5.50;99.90;;;;;;5022457;28;20530;-73
2022/11/15 08:54:04;;;;;;;10.75;9.68;;;5.60;99.90;;;;;;5042244;28;20187;-73
2022/11/15 08:56:30;;;;;;;11.57;9.98;;;5.70;99.90;;;;;;5041325;28;20176;-73
2022/11/15 08:58:56;;;;;;;13.13;10.85;;;6.00;99.90;;;;;;5029123;28;20220;-73
2022/11/15 09:01:22;;;;;;;11.95;9.45;;;6.30;99.90;;;;;;5029837;28;20670;-73
2022/11/15 09:03:47;;;;;;;11.32;9.57;;;6.50;99.90;;;;;;5037021;28;20176;-73
2022/11/15 09:06:14;;;;;;;12.40;10.25;;;6.80;99.90;;;;;;5045932;28;20187;-76
2022/11/15 09:08:40;;;;;;;11.77;10.18;;;7.20;99.90;;;;;;5046398;28;20253;-76
2022/11/15 09:11:07;;;;;;;10.43;9.32;;;7.60;99.90;;;;;;5032448;28;20263;-76
2022/11/15 09:13:34;;;;;;;10.48;9.38;;;8.00;99.90;;;;;;5047693;28;20171;-75
2022/11/15 09:16:00;;;;;;;9.50;8.27;;;8.80;99.90;;;;;;5034228;28;20560;-75
2022/11/15 09:18:27;;;;;;;11.05;9.15;;;10.70;99.90;;;;;;5048653;28;20198;-75
2022/11/15 09:20:56;;;;;;;12.40;9.07;;;13.00;99.90;;;;;;5037221;28;20184;-75
2022/11/15 09:23:22;;;;;;;10.23;8.43;;;15.10;99.90;;;;;;5033488;28;20540;-75
2022/11/15 09:25:48;;;;;;;10.27;8.00;;;16.90;99.90;;;;;;5041226;28;20180;-75
2022/11/15 09:28:14;;;;;;;8.63;7.35;;;18.40;99.90;;;;;;5035103;28;20730;-76
2022/11/15 09:30:39;;;;;;;8.82;7.68;;;19.70;95.90;;;;;;5041548;28;20186;-76
2022/11/15 09:33:13;;;;;;;9.52;7.72;;;20.80;87.10;;;;;;5031797;28;20197;-76
2022/11/15 09:35:40;;;;;;;8.98;8.20;;;21.30;80.20;;;;;;5037491;28;20171;-76
2022/11/15 09:38:06;;;;;;;9.13;8.23;;;21.70;77.10;;;;;;5045578;28;20192;-81
2022/11/15 09:40:35;;;;;;;10.48;8.43;;;22.30;73.10;;;;;;5054190;28;20179;-81
2022/11/15 09:43:39;;;;;;;9.95;7.88;;;22.50;70.70;;;;;;5040602;28;20531;-81
2022/11/15 09:46:10;;;;;;;9.25;8.27;;;22.60;70.20;;;;;;5032844;28;20277;-80
2022/11/15 09:48:56;;;;;;;9.80;8.88;;;22.80;67.80;;;;;;5041153;28;20216;-80
2022/11/15 09:51:47;;;;;;;10.23;7.85;;;22.90;67.30;;;;;;5039780;28;20552;-80
2022/11/15 09:54:36;;;;;;;10.23;8.25;;;23.20;65.20;;;;;;5035296;28;20207;-80
2022/11/15 09:57:06;;;;;;;10.85;8.07;;;23.40;64.70;;;;;;5046400;28;20225;-80
2022/11/15 09:59:40;;;;;;;8.82;7.93;;;23.50;63.90;;;;;;5042601;28;20507;-80
2022/11/15 10:02:18;;;;;;;10.05;8.23;;;23.70;62.90;;;;;;5043266;28;20601;-80
2022/11/15 10:04:43;;;;;;;9.23;8.35;;;24.10;62.20;;;;;;5038704;28;20531;-80
2022/11/15 10:07:28;;;;;;;9.73;8.65;;;24.30;62.60;;;;;;5044414;28;20172;-80
2022/11/15 10:09:57;;;;;;;9.75;8.75;;;24.40;61.60;;;;;;5040280;28;20226;-80
2022/11/15 10:12:24;;;;;;;10.30;8.32;;;25.40;59.20;;;;;;5046670;28;20623;-79
2022/11/15 10:14:55;;;;;;;10.75;8.52;;;25.70;58.50;;;;;;5046648;28;20168;-80
2022/11/15 10:17:37;;;;;;;10.35;8.55;;;26.10;57.70;;;;;;5032949;28;20181;-80
2022/11/15 10:20:14;;;;;;;9.63;8.68;;;26.60;56.60;;;;;;5039989;28;20238;-79
2022/11/15 10:22:53;;;;;;;9.65;8.75;;;26.90;56.30;;;;;;5038940;28;20188;-79
2022/11/15 10:25:28;;;;;;;9.57;8.52;;;26.70;55.50;;;;;;5043397;28;20185;-81
2022/11/15 10:28:00;;;;;;;9.48;8.52;;;26.70;55.50;;;;;;5043425;28;20213;-81
2022/11/15 10:30:38;;;;;;;8.95;8.05;;;27.30;54.70;;;;;;5043074;28;20207;-81
2022/11/15 10:33:27;;;;;;;9.50;8.38;;;27.90;53.60;;;;;;5028717;28;20598;-81
2022/11/15 10:36:11;;;;;;;12.75;7.78;;;28.30;52.80;;;;;;5039794;28;20175;-80
2022/11/15 10:38:49;;;;;;;12.75;8.00;;;28.60;53.00;;;;;;5037618;28;20200;-78
2022/11/15 10:41:16;;;;;;;8.55;7.75;;;28.80;52.00;;;;;;5023008;28;20200;-76
2022/11/15 10:43:42;;;;;;;7.95;7.35;;;29.00;51.90;;;;;;5036031;28;20249;-77
2022/11/15 10:46:24;;;;;;;7.95;7.25;;;29.60;51.10;;;;;;5040225;28;20260;-78
2022/11/15 10:48:49;;;;;;;9.43;7.40;;;30.00;50.90;;;;;;5040482;28;20199;-81
2022/11/15 10:51:28;;;;;;;7.88;7.07;;;30.30;50.10;;;;;;5043149;28;20177;-82
2022/11/15 10:53:57;;;;;;;7.95;7.15;;;30.30;49.60;;;;;;5042706;28;20239;-82
2022/11/15 10:56:26;;;;;;;9.88;7.85;;;30.40;49.30;;;;;;5033296;28;20661;-83
2022/11/15 10:58:55;;;;;;;13.00;8.63;;;30.40;49.00;;;;;;5041603;28;20211;-82
2022/11/15 11:01:26;;;;;;;9.18;8.30;;;30.30;48.90;;;;;;5038791;28;20181;-82
2022/11/15 11:04:07;;;;;;;12.32;8.65;;;30.60;48.70;;;;;;5039258;28;20198;-82
2022/11/15 11:06:54;;;;;;;7.55;6.85;;;30.80;48.70;;;;;;5028279;28;20242;-82
2022/11/15 11:09:36;;;;;;;7.53;6.80;;;30.70;48.50;;;;;;5031580;28;20208;-81
2022/11/15 11:12:03;;;;;;;7.28;6.65;;;31.00;48.40;;;;;;5025595;28;20176;-80
2022/11/15 11:14:39;;;;;;;7.35;6.75;;;31.30;47.70;;;;;;5029701;28;20205;-75
2022/11/15 11:17:30;;;;;;;7.70;6.72;;;31.70;47.60;;;;;;5039155;28;20226;-74
2022/11/15 11:20:07;;;;;;;6.85;6.13;;;32.00;46.70;;;;;;5035543;28;20200;-74
2022/11/15 11:23:02;;;;;;;7.00;6.40;;;33.00;45.40;;;;;;5033312;28;20149;-75
2022/11/15 11:25:28;;;;;;;7.30;6.70;;;33.00;45.00;;;;;;5029032;28;20529;-73
2022/11/15 11:28:00;;;;;;;6.65;6.15;;;33.00;44.60;;;;;;5040972;28;20200;-73
2022/11/15 11:30:38;;;;;;;7.00;6.40;;;33.40;44.40;;;;;;5042997;28;20186;-74
2022/11/15 11:33:29;;;;;;;6.25;5.75;;;33.50;43.30;;;;;;5038273;28;20167;-73
2022/11/15 11:36:27;;;;;;;6.50;5.95;;;33.20;43.60;;;;;;5038466;28;20176;-72
2022/11/15 11:38:55;;;;;;;6.82;6.22;;;33.10;43.90;;;;;;5034251;28;20396;-74
2022/11/15 11:41:49;;;;;;;6.68;6.07;;;33.10;44.00;;;;;;5037550;28;20188;-72
2022/11/15 11:44:47;;;;;;;7.68;6.57;;;33.30;43.70;;;;;;5040368;28;20194;-72
2022/11/15 11:47:44;;;;;;;6.68;6.03;;;33.50;43.30;;;;;;5034399;28;20704;-72
2022/11/15 11:50:18;;;;;;;7.05;6.35;;;33.60;43.70;;;;;;5033527;28;20223;-72
2022/11/15 11:53:23;;;;;;;6.22;5.72;;;33.90;42.90;;;;;;5035100;28;20182;-70
2022/11/15 11:56:01;;;;;;;6.22;5.63;;;33.50;43.00;;;;;;5030210;28;20198;-73
2022/11/15 11:58:36;;;;;;;6.75;6.15;;;33.10;44.30;;;;;;5029824;28;20900;-74
2022/11/15 12:01:08;;;;;;;6.45;5.95;;;32.00;44.70;;;;;;5042438;28;20317;-72
2022/11/15 12:03:36;;;;;;;6.00;5.50;;;32.00;44.70;;;;;;5039156;28;20657;-74
2022/11/15 12:06:14;;;;;;;6.50;6.00;;;31.90;45.20;;;;;;5035788;28;20179;-74
2022/11/15 12:08:59;;;;;;;7.00;5.78;;;32.30;44.90;;;;;;5034000;28;20198;-74
2022/11/15 12:11:41;;;;;;;5.78;5.38;;;32.20;44.50;;;;;;5033730;28;20183;-73
2022/11/15 12:14:18;;;;;;;6.22;5.60;;;32.60;44.60;;;;;;5036756;28;20191;-73
2022/11/15 12:16:43;;;;;;;6.15;5.65;;;33.50;43.80;;;;;;5030261;28;20191;-73
2022/11/15 12:19:09;;;;;;;6.65;6.15;;;33.20;43.40;;;;;;5035059;28;20565;-73
2022/11/15 12:21:50;;;;;;;6.93;6.22;;;32.60;43.80;;;;;;5040965;28;20179;-73
2022/11/15 12:24:40;;;;;;;6.40;5.90;;;32.40;43.90;;;;;;5045148;28;20189;-73
2022/11/15 12:27:33;;;;;;;6.78;6.28;;;31.90;44.60;;;;;;5045269;28;20175;-74
2022/11/15 12:30:07;;;;;;;8.52;5.97;;;31.20;45.40;;;;;;5044683;28;20301;-74
2022/11/15 12:32:37;;;;;;;7.25;6.63;;;30.10;47.20;;;;;;5030249;28;20475;-73
2022/11/15 12:35:21;;;;;;;6.55;5.88;;;29.60;47.90;;;;;;5031433;28;20215;-73
2022/11/15 12:37:48;;;;;;;8.27;5.80;;;29.50;47.90;;;;;;5037114;28;20178;-73
2022/11/15 12:40:23;;;;;;;6.30;5.80;;;29.70;48.00;;;;;;5036312;28;20172;-74
2022/11/15 12:43:11;;;;;;;6.20;5.75;;;30.00;47.60;;;;;;5041685;28;20176;-74
2022/11/15 12:45:38;;;;;;;5.47;5.07;;;30.20;46.90;;;;;;5032041;28;20183;-74
2022/11/15 12:48:16;;;;;;;8.20;6.03;;;30.10;47.00;;;;;;5023880;28;20215;-74
2022/11/15 12:50:53;;;;;;;5.82;5.22;;;29.40;47.60;;;;;;5025639;28;20619;-74
2022/11/15 12:53:32;;;;;;;6.43;5.78;;;28.70;48.50;;;;;;5028460;28;20185;-74
2022/11/15 12:56:18;;;;;;;6.50;5.90;;;27.50;50.40;;;;;;5019307;28;20176;-74
2022/11/15 12:58:47;;;;;;;6.70;6.10;;;26.90;51.70;;;;;;5023860;28;20207;-74
2022/11/15 13:01:33;;;;;;;8.70;5.75;;;25.90;52.00;;;;;;5042119;28;20186;-75
2022/11/15 13:04:27;;;;;;;6.35;5.07;;;24.90;54.50;;;;;;5026172;28;20185;-75
2022/11/15 13:07:07;;;;;;;6.88;6.20;;;24.30;56.00;;;;;;5030516;28;20180;-75
2022/11/15 13:09:35;;;;;;;5.85;5.45;;;24.00;56.70;;;;;;5027012;28;20207;-75
2022/11/15 13:12:04;;;;;;;5.35;4.95;;;23.80;56.90;;;;;;5034864;28;20199;-76
2022/11/15 13:14:49;;;;;;;6.13;5.53;;;23.40;57.40;;;;;;5031017;28;20928;-75
2022/11/15 13:17:31;;;;;;;7.10;6.50;;;23.20;57.60;;;;;;5040279;28;20180;-75